Cromwell, Iowa
Current Conditions -  °F | °C
As of 7:55 PM on Monday 24 Nov 2014 (Local Time) from KCSQ Reporting Station
Overcast Overcast  
Wind Chill: 12°   Ceiling: 3300
Heat Index: 27°   Visibility: NA
Dew Point: 18°   Wind: 22mph
Humidity: 69%   Direction: 310°NW
Pressure: 29.92"   Gusts: NA
Location:  41.04°N, 94.46°W
Report Text: KCSQ 250155Z AUTO 31019KT OVC033 M03/M08 A2992 RMK AO2
Loading
Personal Weather Stations






























Interactive Weather Map New forecast layout! Learn more

10-Day Weather Forecast

Advertisements
Track Severe Weather on mobile